createdAt,value
2022-08-26T00:01:46.699Z,15.73
2022-08-26T00:04:13.769Z,12.25
2022-08-26T00:06:42.752Z,12.40
2022-08-26T00:09:16.730Z,18.55
2022-08-26T00:11:45.364Z,21.38
2022-08-26T00:14:13.958Z,16.13
2022-08-26T00:16:47.606Z,16.27
2022-08-26T00:19:18.265Z,13.57
2022-08-26T00:21:46.326Z,13.98
2022-08-26T00:24:15.952Z,13.25
2022-08-26T00:26:43.015Z,13.90
2022-08-26T00:29:10.495Z,12.50
2022-08-26T00:31:37.725Z,11.75
2022-08-26T00:34:05.787Z,7.93
2022-08-26T00:36:32.678Z,10.80
2022-08-26T00:38:59.457Z,9.18
2022-08-26T00:41:26.443Z,15.20
2022-08-26T00:43:54.454Z,14.45
2022-08-26T00:46:29.611Z,10.73
2022-08-26T00:49:11.671Z,19.25
2022-08-26T00:51:53.521Z,19.60
2022-08-26T00:54:23.153Z,13.40
2022-08-26T00:56:57.615Z,16.98
2022-08-26T00:59:28.949Z,24.00
2022-08-26T01:02:00.464Z,13.00
2022-08-26T01:04:31.466Z,15.20
2022-08-26T01:06:59.089Z,16.10
2022-08-26T01:09:26.993Z,11.05
2022-08-26T01:11:56.371Z,17.50
2022-08-26T01:14:27.508Z,16.52
2022-08-26T01:16:54.612Z,14.20
2022-08-26T01:19:33.358Z,10.88
2022-08-26T01:22:08.698Z,10.90
2022-08-26T01:24:38.050Z,25.40
2022-08-26T01:27:08.744Z,19.70
2022-08-26T01:29:39.370Z,13.90
2022-08-26T01:32:08.922Z,17.50
2022-08-26T01:34:38.549Z,15.73
2022-08-26T01:37:27.284Z,17.13
2022-08-26T01:39:56.124Z,18.13
2022-08-26T01:42:26.734Z,19.15
2022-08-26T01:45:01.238Z,24.75
2022-08-26T01:47:30.976Z,19.70
2022-08-26T01:50:01.677Z,20.30
2022-08-26T01:52:35.548Z,20.25
2022-08-26T01:55:02.639Z,11.88
2022-08-26T01:57:29.622Z,15.38
2022-08-26T02:00:16.235Z,17.13
2022-08-26T02:02:46.532Z,19.02
2022-08-26T02:05:17.600Z,10.40
2022-08-26T02:07:45.215Z,10.18
2022-08-26T02:10:15.059Z,22.77
2022-08-26T02:12:42.318Z,18.65
2022-08-26T02:15:12.943Z,20.67
2022-08-26T02:17:46.106Z,17.52
2022-08-26T02:20:18.011Z,19.15
2022-08-26T02:22:47.037Z,13.98
2022-08-26T02:25:21.006Z,18.90
2022-08-26T02:27:48.067Z,14.43
2022-08-26T02:30:18.301Z,14.52
2022-08-26T02:32:45.240Z,10.02
2022-08-26T02:35:20.238Z,15.65
2022-08-26T02:37:49.411Z,9.68
2022-08-26T02:40:19.673Z,14.35
2022-08-26T02:42:49.193Z,21.80
2022-08-26T02:45:16.755Z,19.40
2022-08-26T02:47:51.710Z,15.88
2022-08-26T02:50:19.965Z,19.80
2022-08-26T02:52:49.735Z,17.67
2022-08-26T02:55:17.250Z,26.90
2022-08-26T02:57:44.248Z,19.40
2022-08-26T03:00:14.968Z,16.92
2022-08-26T03:02:42.278Z,17.65
2022-08-26T03:05:09.916Z,22.55
2022-08-26T03:07:37.197Z,11.68
2022-08-26T03:10:08.540Z,16.05
2022-08-26T03:12:36.357Z,23.17
2022-08-26T03:15:13.181Z,24.75
2022-08-26T03:17:46.786Z,11.60
2022-08-26T03:20:15.576Z,13.25
2022-08-26T03:22:44.601Z,15.55
2022-08-26T03:25:14.526Z,20.88
2022-08-26T03:27:41.780Z,16.30
2022-08-26T03:30:30.978Z,24.05
2022-08-26T03:32:57.838Z,19.10
2022-08-26T03:35:26.227Z,20.40
2022-08-26T03:37:53.572Z,17.75
2022-08-26T03:40:21.042Z,24.17
2022-08-26T03:42:49.312Z,24.50
2022-08-26T03:45:17.290Z,27.30
2022-08-26T03:47:44.727Z,21.50
2022-08-26T03:50:15.269Z,26.65
2022-08-26T03:52:44.303Z,17.75
2022-08-26T03:55:11.348Z,15.82
2022-08-26T03:57:37.988Z,24.70
2022-08-26T04:00:07.046Z,21.83
2022-08-26T04:02:33.781Z,17.92
2022-08-26T04:05:00.472Z,25.17
2022-08-26T04:07:27.186Z,24.50
2022-08-26T04:09:58.366Z,24.20
2022-08-26T04:12:26.167Z,20.77
2022-08-26T04:14:53.871Z,18.42
2022-08-26T04:17:24.819Z,21.20
2022-08-26T04:19:55.027Z,15.15
2022-08-26T04:22:24.875Z,19.95
2022-08-26T04:24:52.272Z,14.38
2022-08-26T04:27:19.194Z,24.60
2022-08-26T04:29:47.703Z,20.23
2022-08-26T04:32:15.763Z,22.98
2022-08-26T04:34:43.754Z,26.45
2022-08-26T04:37:12.107Z,20.83
2022-08-26T04:39:39.238Z,27.90
2022-08-26T04:42:06.442Z,33.00
2022-08-26T04:44:35.992Z,26.92
2022-08-26T04:47:03.119Z,23.58
2022-08-26T04:49:35.475Z,25.13
2022-08-26T04:52:03.296Z,27.92
2022-08-26T04:54:31.687Z,28.15
2022-08-26T04:56:59.370Z,39.20
2022-08-26T04:59:26.307Z,34.50
2022-08-26T05:01:57.476Z,36.00
2022-08-26T05:04:43.754Z,24.30
2022-08-26T05:07:11.295Z,33.22
2022-08-26T05:09:40.506Z,43.00
2022-08-26T05:12:09.786Z,30.25
2022-08-26T05:14:37.109Z,28.17
2022-08-26T05:17:04.132Z,26.70
2022-08-26T05:19:31.620Z,33.03
2022-08-26T05:21:59.531Z,22.30
2022-08-26T05:24:26.436Z,30.25
2022-08-26T05:26:54.484Z,32.13
2022-08-26T05:29:23.745Z,25.55
2022-08-26T05:31:52.673Z,28.27
2022-08-26T05:34:23.419Z,30.40
2022-08-26T05:36:52.743Z,20.55
2022-08-26T05:39:20.092Z,28.60
2022-08-26T05:41:47.701Z,25.80
2022-08-26T05:44:17.459Z,33.33
2022-08-26T05:46:44.903Z,30.15
2022-08-26T05:49:14.023Z,29.58
2022-08-26T05:51:45.333Z,22.98
2022-08-26T05:54:13.546Z,31.70
2022-08-26T05:56:40.949Z,23.98
2022-08-26T05:59:14.732Z,32.00
2022-08-26T06:01:42.897Z,26.08
2022-08-26T06:04:10.407Z,20.67
2022-08-26T06:06:41.282Z,23.85
2022-08-26T06:09:11.327Z,26.67
2022-08-26T06:11:39.157Z,34.08
2022-08-26T06:14:08.063Z,23.45
2022-08-26T06:16:38.696Z,27.75
2022-08-26T06:19:10.831Z,24.95
2022-08-26T06:21:41.330Z,28.65
2022-08-26T06:24:32.258Z,29.17
2022-08-26T06:27:05.683Z,11.32
2022-08-26T06:29:36.046Z,20.55
2022-08-26T06:32:04.437Z,24.42
2022-08-26T06:34:31.298Z,20.60
2022-08-26T06:37:01.417Z,22.17
2022-08-26T06:39:30.900Z,19.58
2022-08-26T06:41:59.026Z,20.40
2022-08-26T06:44:26.216Z,20.85
2022-08-26T06:46:53.551Z,29.05
2022-08-26T06:49:26.676Z,22.38
2022-08-26T06:51:58.234Z,20.75
2022-08-26T06:54:25.885Z,18.83
2022-08-26T06:56:52.557Z,19.45
2022-08-26T06:59:19.239Z,31.63
2022-08-26T07:01:46.688Z,14.65
2022-08-26T07:04:20.230Z,14.32
2022-08-26T07:06:52.656Z,13.90
2022-08-26T07:09:24.843Z,16.60
2022-08-26T07:11:53.308Z,22.02
2022-08-26T07:14:21.905Z,30.83
2022-08-26T07:16:52.483Z,19.73
2022-08-26T07:19:28.988Z,24.10
2022-08-26T07:21:59.350Z,22.40
2022-08-26T07:24:29.172Z,21.02
2022-08-26T07:27:02.800Z,21.33
2022-08-26T07:29:29.934Z,32.20
2022-08-26T07:31:57.225Z,18.35
2022-08-26T07:34:25.112Z,20.77
2022-08-26T07:36:53.849Z,19.00
2022-08-26T07:39:23.287Z,21.25
2022-08-26T07:41:51.096Z,15.05
2022-08-26T07:44:18.382Z,21.65
2022-08-26T07:46:52.258Z,17.35
2022-08-26T07:49:23.791Z,17.45
2022-08-26T07:51:51.478Z,25.63
2022-08-26T07:54:18.813Z,19.77
2022-08-26T07:56:46.225Z,15.48
2022-08-26T07:59:14.007Z,15.38
2022-08-26T08:01:44.770Z,21.83
2022-08-26T08:04:17.449Z,23.05
2022-08-26T08:06:45.560Z,19.67
2022-08-26T08:09:16.131Z,21.33
2022-08-26T08:11:45.089Z,14.50
2022-08-26T08:14:13.180Z,24.90
2022-08-26T08:16:45.910Z,14.23
2022-08-26T08:19:14.605Z,20.90
2022-08-26T08:21:42.200Z,25.63
2022-08-26T08:24:11.559Z,13.57
2022-08-26T08:26:38.915Z,20.00
2022-08-26T08:29:06.131Z,16.65
2022-08-26T08:34:21.443Z,17.50
2022-08-26T08:36:48.502Z,18.15
2022-08-26T08:39:17.176Z,22.38
2022-08-26T08:42:19.073Z,16.00
2022-08-26T08:44:52.928Z,21.70
2022-08-26T08:47:32.723Z,21.90
2022-08-26T08:50:17.937Z,16.67
2022-08-26T08:53:09.061Z,13.52
2022-08-26T08:56:00.912Z,20.70
2022-08-26T08:58:44.096Z,19.38
2022-08-26T09:01:25.945Z,17.73
2022-08-26T09:03:58.395Z,23.10
2022-08-26T09:06:28.324Z,22.77
2022-08-26T09:08:56.631Z,16.73
2022-08-26T09:11:23.416Z,16.15
2022-08-26T09:13:53.630Z,16.92
2022-08-26T09:16:56.686Z,19.08
2022-08-26T09:19:34.168Z,15.70
2022-08-26T09:22:04.687Z,22.52
2022-08-26T09:24:41.639Z,22.27
2022-08-26T09:27:08.833Z,19.40
2022-08-26T09:29:44.716Z,18.77
2022-08-26T09:32:27.484Z,16.05
2022-08-26T09:35:01.506Z,12.52
2022-08-26T09:37:36.971Z,12.85
2022-08-26T09:40:16.340Z,19.13
2022-08-26T09:42:43.248Z,8.27
2022-08-26T09:45:12.030Z,9.85
2022-08-26T09:47:40.499Z,16.23
2022-08-26T09:50:31.490Z,14.52
2022-08-26T09:53:16.112Z,9.73
2022-08-26T09:55:46.087Z,15.30
2022-08-26T09:58:15.564Z,13.45
2022-08-26T10:00:55.933Z,13.50
2022-08-26T10:03:28.008Z,11.00
2022-08-26T10:06:17.711Z,5.75
2022-08-26T10:08:51.515Z,12.02
2022-08-26T10:11:43.141Z,9.45
2022-08-26T10:14:21.720Z,13.23
2022-08-26T10:17:03.709Z,4.88
2022-08-26T10:19:56.527Z,3.67
2022-08-26T10:22:40.249Z,6.07
2022-08-26T10:25:12.005Z,12.60
2022-08-26T10:28:03.745Z,10.23
2022-08-26T10:31:00.841Z,6.57
2022-08-26T10:33:27.629Z,11.50
2022-08-26T10:36:05.507Z,10.35
2022-08-26T10:38:37.607Z,7.25
2022-08-26T10:41:20.666Z,4.82
2022-08-26T10:43:59.871Z,7.07
2022-08-26T10:46:36.327Z,12.23
2022-08-26T10:49:10.466Z,9.75
2022-08-26T10:51:44.208Z,8.13
2022-08-26T10:54:29.782Z,11.00
2022-08-26T10:57:24.792Z,4.57
2022-08-26T11:00:28.811Z,8.95
2022-08-26T11:03:22.012Z,10.85
2022-08-26T11:06:15.156Z,10.13
2022-08-26T11:08:50.408Z,10.60
2022-08-26T11:11:42.192Z,10.45
2022-08-26T11:14:34.230Z,5.70
2022-08-26T11:17:13.105Z,12.88
2022-08-26T11:20:00.348Z,3.95
2022-08-26T11:22:28.761Z,4.50
2022-08-26T11:24:55.577Z,9.02
2022-08-26T11:27:26.045Z,12.18
2022-08-26T11:30:01.984Z,11.77
2022-08-26T11:32:34.814Z,8.60
2022-08-26T11:35:09.340Z,8.13
2022-08-26T11:37:41.517Z,7.65
2022-08-26T11:40:12.031Z,5.68
2022-08-26T11:42:43.352Z,8.95
2022-08-26T11:45:41.125Z,4.68
2022-08-26T11:48:20.964Z,9.98
2022-08-26T11:50:58.183Z,7.50
2022-08-26T11:53:26.143Z,5.93
2022-08-26T11:55:55.170Z,7.53
2022-08-26T11:58:24.362Z,2.25
2022-08-26T12:00:59.345Z,3.58
2022-08-26T12:03:32.039Z,10.93
2022-08-26T12:05:59.364Z,6.03
2022-08-26T12:08:29.115Z,6.38
2022-08-26T12:11:09.744Z,5.93
2022-08-26T12:13:39.303Z,6.07
2022-08-26T12:16:06.495Z,5.03
2022-08-26T12:18:37.362Z,5.90
2022-08-26T12:21:19.141Z,5.60
2022-08-26T12:23:47.786Z,7.88
2022-08-26T12:26:23.921Z,7.72
2022-08-26T12:28:53.602Z,5.53
2022-08-26T12:31:27.968Z,4.80
2022-08-26T12:33:59.028Z,7.70
2022-08-26T12:36:56.837Z,4.70
2022-08-26T12:39:35.735Z,6.03
2022-08-26T12:42:04.310Z,1.60
2022-08-26T12:44:36.703Z,6.43
2022-08-26T12:47:39.065Z,6.88
2022-08-26T12:50:25.658Z,8.25
2022-08-26T12:53:10.409Z,9.68
2022-08-26T12:55:39.661Z,9.18
2022-08-26T12:58:15.661Z,4.93
2022-08-26T13:00:43.978Z,10.48
2022-08-26T13:03:46.336Z,6.47
2022-08-26T13:06:42.242Z,5.18
2022-08-26T13:09:10.016Z,7.43
2022-08-26T13:11:39.731Z,12.25
2022-08-26T13:14:09.111Z,4.65
2022-08-26T13:16:39.390Z,9.27
2022-08-26T13:19:10.371Z,6.05
2022-08-26T13:21:52.964Z,3.92
2022-08-26T13:24:26.293Z,4.20
2022-08-26T13:26:54.422Z,5.30
2022-08-26T13:29:21.111Z,4.45
2022-08-26T13:31:48.214Z,7.72
2022-08-26T13:34:20.373Z,5.20
2022-08-26T13:36:52.885Z,8.20
2022-08-26T13:39:20.794Z,4.72
2022-08-26T13:41:47.747Z,6.75
2022-08-26T13:44:16.073Z,7.03
2022-08-26T13:46:43.200Z,10.70
2022-08-26T13:49:11.223Z,9.40
2022-08-26T13:51:38.364Z,8.35
2022-08-26T13:54:06.046Z,10.32
2022-08-26T13:56:33.911Z,6.75
2022-08-26T13:59:04.083Z,3.80
2022-08-26T14:01:31.985Z,4.88
2022-08-26T14:03:58.894Z,8.07
2022-08-26T14:06:25.789Z,2.67
2022-08-26T14:08:52.489Z,4.88
2022-08-26T14:11:20.286Z,5.80
2022-08-26T14:13:47.028Z,6.80
2022-08-26T14:16:25.549Z,6.18
2022-08-26T14:18:53.327Z,7.32
2022-08-26T14:21:20.620Z,8.15
2022-08-26T14:23:47.632Z,7.35
2022-08-26T14:26:27.838Z,2.88
2022-08-26T14:28:56.753Z,6.80
2022-08-26T14:31:24.438Z,6.03
2022-08-26T14:33:51.427Z,4.18
2022-08-26T14:36:32.259Z,6.90
2022-08-26T14:39:06.263Z,3.55
2022-08-26T14:41:35.490Z,4.50
2022-08-26T14:44:07.199Z,6.30
2022-08-26T14:46:46.902Z,10.13
2022-08-26T14:49:14.724Z,9.73
2022-08-26T14:51:41.481Z,4.65
2022-08-26T14:54:12.621Z,5.28
2022-08-26T14:56:52.292Z,4.13
2022-08-26T14:59:22.047Z,8.25
2022-08-26T15:01:49.373Z,6.32
2022-08-26T15:04:16.376Z,9.35
2022-08-26T15:06:43.452Z,7.53
2022-08-26T15:09:12.048Z,5.18
2022-08-26T15:11:38.800Z,7.10
2022-08-26T15:14:06.641Z,4.68
2022-08-26T15:16:34.379Z,2.75
2022-08-26T15:19:01.465Z,3.95
2022-08-26T15:21:28.725Z,5.93
2022-08-26T15:23:55.467Z,5.65
2022-08-26T15:26:23.154Z,5.80
2022-08-26T15:28:51.062Z,5.43
2022-08-26T15:31:19.114Z,6.82
2022-08-26T15:33:47.531Z,6.15
2022-08-26T15:36:14.540Z,5.13
2022-08-26T15:38:42.561Z,4.22
2022-08-26T15:41:10.332Z,7.95
2022-08-26T15:43:38.275Z,3.40
2022-08-26T15:46:10.447Z,5.63
2022-08-26T15:48:37.934Z,5.72
2022-08-26T15:51:06.312Z,3.22
2022-08-26T15:53:34.730Z,3.42
2022-08-26T15:56:02.740Z,4.70
2022-08-26T15:58:30.109Z,9.55
2022-08-26T16:00:57.412Z,6.88
2022-08-26T16:03:24.108Z,9.15
2022-08-26T16:05:50.977Z,5.28
2022-08-26T16:08:17.990Z,6.47
2022-08-26T16:10:50.535Z,5.45
2022-08-26T16:13:20.029Z,5.28
2022-08-26T16:15:48.010Z,5.30
2022-08-26T16:18:15.950Z,7.55
2022-08-26T16:21:05.021Z,4.90
2022-08-26T16:23:38.536Z,4.10
2022-08-26T16:26:10.883Z,6.05
2022-08-26T16:28:38.895Z,8.35
2022-08-26T16:31:06.397Z,7.97
2022-08-26T16:33:33.344Z,9.25
2022-08-26T16:36:00.104Z,14.07
2022-08-26T16:38:26.904Z,1.88
2022-08-26T16:40:53.566Z,9.13
2022-08-26T16:43:20.230Z,5.25
2022-08-26T16:45:46.927Z,5.15
2022-08-26T16:48:13.669Z,3.80
2022-08-26T16:50:43.443Z,7.75
2022-08-26T16:55:48.513Z,7.72
2022-08-26T16:58:15.671Z,9.57
2022-08-26T17:00:42.698Z,2.33
2022-08-26T17:03:10.425Z,11.65
2022-08-26T17:05:37.767Z,12.65
2022-08-26T17:08:05.865Z,4.32
2022-08-26T17:10:33.582Z,6.95
2022-08-26T17:13:00.791Z,5.75
2022-08-26T17:15:27.644Z,8.57
2022-08-26T17:17:55.551Z,7.00
2022-08-26T17:20:24.691Z,6.55
2022-08-26T17:22:54.240Z,9.73
2022-08-26T17:25:31.782Z,10.50
2022-08-26T17:27:59.358Z,9.20
2022-08-26T17:30:26.270Z,8.20
2022-08-26T17:32:54.053Z,4.65
2022-08-26T17:35:21.040Z,5.15
2022-08-26T17:37:48.178Z,7.88
2022-08-26T17:40:18.385Z,2.97
2022-08-26T17:42:46.225Z,11.13
2022-08-26T17:45:13.345Z,11.85
2022-08-26T17:47:41.276Z,15.52
2022-08-26T17:50:12.207Z,11.52
2022-08-26T17:52:40.395Z,10.88
2022-08-26T17:55:09.008Z,10.80
2022-08-26T17:57:40.921Z,5.90
2022-08-26T18:00:22.171Z,11.88
2022-08-26T18:02:48.838Z,12.38
2022-08-26T18:05:17.567Z,6.10
2022-08-26T18:07:45.593Z,17.60
2022-08-26T18:10:16.023Z,9.23
2022-08-26T18:12:43.240Z,13.63
2022-08-26T18:15:11.259Z,13.18
2022-08-26T18:17:39.735Z,10.75
2022-08-26T18:20:13.007Z,10.65
2022-08-26T18:22:40.276Z,15.50
2022-08-26T18:25:08.482Z,8.77
2022-08-26T18:27:36.406Z,13.45
2022-08-26T18:30:06.822Z,12.18
2022-08-26T18:32:33.571Z,15.63
2022-08-26T18:35:00.335Z,15.25
2022-08-26T18:37:29.579Z,13.35
2022-08-26T18:39:59.636Z,19.02
2022-08-26T18:42:26.934Z,17.92
2022-08-26T18:44:54.265Z,9.20
2022-08-26T18:47:21.228Z,12.63
2022-08-26T18:49:49.015Z,17.38
2022-08-26T18:52:16.162Z,11.32
2022-08-26T18:54:43.394Z,13.48
2022-08-26T18:57:10.782Z,10.93
2022-08-26T18:59:37.734Z,14.98
2022-08-26T19:02:04.895Z,16.83
2022-08-26T19:04:31.911Z,15.68
2022-08-26T19:06:58.818Z,17.92
2022-08-26T19:09:28.588Z,12.05
2022-08-26T19:14:28.054Z,8.63
2022-08-26T19:16:55.430Z,17.73
2022-08-26T19:19:24.228Z,10.35
2022-08-26T19:21:51.813Z,12.18
2022-08-26T19:24:19.639Z,19.38
2022-08-26T19:26:49.627Z,19.70
2022-08-26T19:29:19.248Z,9.88
2022-08-26T19:31:46.415Z,16.67
2022-08-26T19:34:15.238Z,18.08
2022-08-26T19:36:46.684Z,17.33
2022-08-26T19:39:13.881Z,16.13
2022-08-26T19:41:41.294Z,15.90
2022-08-26T19:44:34.868Z,15.48
2022-08-26T19:47:03.790Z,13.55
2022-08-26T19:49:31.512Z,18.40
2022-08-26T19:51:58.378Z,21.85
2022-08-26T19:54:25.737Z,12.32
2022-08-26T19:56:52.392Z,15.98
2022-08-26T19:59:19.154Z,14.63
2022-08-26T20:01:46.007Z,14.82
2022-08-26T20:04:27.916Z,12.50
2022-08-26T20:06:57.732Z,22.98
2022-08-26T20:09:27.481Z,12.55
2022-08-26T20:11:56.919Z,16.13
2022-08-26T20:14:24.526Z,14.27
2022-08-26T20:16:51.465Z,13.32
2022-08-26T20:19:37.688Z,8.75
2022-08-26T20:22:05.534Z,10.27
2022-08-26T20:24:33.297Z,14.60
2022-08-26T20:27:03.252Z,11.65
2022-08-26T20:29:32.666Z,14.30
2022-08-26T20:31:59.543Z,5.45
2022-08-26T20:34:26.675Z,13.13
2022-08-26T20:36:53.500Z,15.65
2022-08-26T20:39:21.156Z,10.20
2022-08-26T20:41:48.888Z,10.20
2022-08-26T20:44:16.757Z,8.82
2022-08-26T20:46:44.150Z,12.50
2022-08-26T20:49:11.605Z,10.35
2022-08-26T20:51:38.642Z,11.50
2022-08-26T20:54:06.451Z,12.73
2022-08-26T20:56:33.224Z,12.27
2022-08-26T20:59:00.877Z,17.52
2022-08-26T21:01:34.646Z,11.50
2022-08-26T21:04:08.667Z,8.65
2022-08-26T21:06:35.946Z,11.52
2022-08-26T21:09:05.331Z,12.73
2022-08-26T21:11:32.571Z,11.15
2022-08-26T21:14:07.166Z,12.68
2022-08-26T21:16:44.347Z,9.73
2022-08-26T21:19:13.037Z,15.00
2022-08-26T21:21:40.828Z,8.65
2022-08-26T21:24:08.118Z,4.88
2022-08-26T21:26:35.347Z,5.38
2022-08-26T21:29:02.974Z,8.77
2022-08-26T21:31:31.982Z,8.13
2022-08-26T21:34:00.095Z,5.43
2022-08-26T21:36:27.203Z,5.88
2022-08-26T21:38:57.216Z,7.05
2022-08-26T21:41:25.137Z,5.50
2022-08-26T21:43:55.903Z,6.57
2022-08-26T21:46:24.165Z,6.22
2022-08-26T21:48:55.632Z,7.60
2022-08-26T21:51:24.754Z,7.68
2022-08-26T21:53:54.984Z,14.55
2022-08-26T21:56:23.850Z,8.45
2022-08-26T21:58:52.454Z,14.25
2022-08-26T22:01:22.100Z,9.18
2022-08-26T22:03:50.187Z,7.85
2022-08-26T22:06:19.146Z,8.82
2022-08-26T22:08:46.119Z,9.40
2022-08-26T22:11:13.772Z,5.90
2022-08-26T22:13:42.202Z,5.28
2022-08-26T22:16:10.025Z,9.30
2022-08-26T22:18:37.514Z,9.10
2022-08-26T22:21:08.565Z,13.57
2022-08-26T22:23:36.792Z,9.38
2022-08-26T22:26:04.920Z,7.35
2022-08-26T22:28:32.072Z,5.18
2022-08-26T22:31:17.906Z,4.30
2022-08-26T22:33:45.381Z,12.50
2022-08-26T22:36:21.095Z,11.27
2022-08-26T22:38:48.609Z,5.80
2022-08-26T22:41:17.907Z,10.07
2022-08-26T22:43:45.907Z,8.38
2022-08-26T22:46:24.681Z,15.07
2022-08-26T22:48:54.439Z,9.35
2022-08-26T22:51:22.373Z,9.07
2022-08-26T22:53:49.675Z,9.10
2022-08-26T22:56:19.479Z,8.55
2022-08-26T22:58:46.244Z,11.73
2022-08-26T23:01:13.766Z,6.53
2022-08-26T23:03:40.724Z,4.20
2022-08-26T23:06:11.752Z,11.38
2022-08-26T23:08:39.578Z,14.82
2022-08-26T23:11:13.070Z,9.82
2022-08-26T23:13:40.464Z,10.00
2022-08-26T23:16:09.669Z,5.80
2022-08-26T23:18:36.896Z,10.50
2022-08-26T23:21:03.963Z,7.57
2022-08-26T23:23:31.185Z,5.72
2022-08-26T23:25:58.611Z,4.13
2022-08-26T23:28:26.546Z,3.33
2022-08-26T23:30:54.267Z,7.57
2022-08-26T23:33:21.189Z,7.15
2022-08-26T23:35:48.322Z,5.75
2022-08-26T23:38:16.101Z,6.97
2022-08-26T23:40:43.054Z,6.00
2022-08-26T23:43:11.747Z,10.35
2022-08-26T23:45:38.651Z,7.43
2022-08-26T23:48:06.530Z,8.90
2022-08-26T23:50:51.749Z,5.63
2022-08-26T23:53:21.841Z,4.60
2022-08-26T23:55:51.299Z,10.55
2022-08-26T23:58:19.630Z,11.07
